Time;durP1;ratioP1;P1;durP2;ratioP2;P2;SDS_P1;SDS_P2;PMS_P1;PMS_P2;Temp;Humidity;BMP_temperature;BMP_pressure;BME280_temperature;BME280_humidity;BME280_pressure;Samples;Min_cycle;Max_cycle;Signal;HPM_P1;HPM_P2
2022/03/24 00:00:07;;;;;;;42.17;15.95;;;;;;;3.00;50.10;101322.31;4438179;32;20181;-69
2022/03/24 00:02:38;;;;;;;36.30;16.33;;;;;;;2.88;50.48;101312.41;4438240;32;20138;-69
2022/03/24 00:05:08;;;;;;;38.95;15.80;;;;;;;2.88;49.78;101311.50;4438263;32;20077;-69
2022/03/24 00:07:35;;;;;;;41.92;16.15;;;;;;;3.04;49.45;101312.91;4438103;32;20084;-69
2022/03/24 00:10:03;;;;;;;37.33;16.12;;;;;;;2.95;51.58;101310.00;4438107;32;20123;-69
2022/03/24 00:12:31;;;;;;;38.92;15.68;;;;;;;2.97;50.57;101313.53;4438044;32;20244;-69
2022/03/24 00:14:58;;;;;;;43.17;15.73;;;;;;;3.32;47.91;101317.31;4438202;32;20775;-69
2022/03/24 00:17:25;;;;;;;39.03;14.87;;;;;;;3.62;46.84;101301.78;4423516;32;20085;-69
2022/03/24 00:19:52;;;;;;;40.40;14.82;;;;;;;3.63;47.21;101300.03;4437795;32;20153;-69
2022/03/24 00:22:20;;;;;;;39.67;15.95;;;;;;;3.57;46.97;101306.84;4437952;32;20101;-69
2022/03/24 00:24:47;;;;;;;40.33;15.23;;;;;;;3.52;47.57;101297.09;4437911;32;20085;-69
2022/03/24 00:27:15;;;;;;;39.88;15.05;;;;;;;3.34;47.64;101287.87;4437651;32;20151;-69
2022/03/24 00:29:45;;;;;;;40.70;15.93;;;;;;;3.29;48.07;101283.38;4438814;32;20101;-69
2022/03/24 00:32:12;;;;;;;46.90;17.08;;;;;;;3.15;49.00;101292.47;4439777;32;20105;-69
2022/03/24 00:34:40;;;;;;;47.28;19.70;;;;;;;2.98;49.66;101286.69;4439961;32;20099;-69
2022/03/24 00:37:09;;;;;;;70.62;27.42;;;;;;;2.91;51.36;101282.09;4439789;32;20120;-70
2022/03/24 00:39:40;;;;;;;70.45;26.67;;;;;;;2.82;50.84;101280.94;4439822;32;20529;-69
2022/03/24 00:42:11;;;;;;;64.45;24.02;;;;;;;2.69;52.94;101291.78;4439835;32;20515;-69
2022/03/24 00:44:42;;;;;;;48.05;19.62;;;;;;;2.59;52.37;101279.28;4439870;32;20088;-69
2022/03/24 00:47:13;;;;;;;40.85;19.73;;;;;;;2.50;52.57;101273.75;4439754;32;20077;-69
2022/03/24 00:49:42;;;;;;;48.70;18.73;;;;;;;2.47;52.75;101269.31;4439864;32;20093;-69
2022/03/24 00:52:10;;;;;;;44.70;18.40;;;;;;;2.52;52.69;101272.09;4439849;32;20175;-69
2022/03/24 00:54:38;;;;;;;39.03;18.30;;;;;;;2.43;52.88;101267.44;4439593;32;20089;-69
2022/03/24 00:57:06;;;;;;;40.22;18.55;;;;;;;2.29;54.00;101269.56;4425561;32;20085;-69
2022/03/24 00:59:36;;;;;;;42.53;17.67;;;;;;;2.11;54.19;101271.50;4439816;32;20127;-69
2022/03/24 01:02:06;;;;;;;45.28;18.17;;;;;;;2.06;54.39;101265.25;4439752;32;20168;-69
2022/03/24 01:04:34;;;;;;;41.05;17.30;;;;;;;2.06;53.58;101260.06;4439741;32;20076;-69
2022/03/24 01:07:03;;;;;;;49.13;17.20;;;;;;;2.20;52.65;101258.84;4439670;32;20167;-69
2022/03/24 01:09:30;;;;;;;39.40;17.73;;;;;;;2.50;50.40;101255.53;4439614;32;20115;-69
2022/03/24 01:11:58;;;;;;;51.03;18.23;;;;;;;2.65;49.51;101250.87;4439564;32;20101;-69
2022/03/24 01:14:25;;;;;;;42.72;17.90;;;;;;;2.68;50.38;101245.75;4439587;32;20121;-70
2022/03/24 01:16:52;;;;;;;38.97;16.75;;;;;;;2.54;50.95;101245.28;4439533;32;20566;-69
2022/03/24 01:19:20;;;;;;;47.53;18.37;;;;;;;2.42;51.17;101246.59;4439622;32;20490;-69
2022/03/24 01:21:47;;;;;;;44.28;17.83;;;;;;;2.38;50.93;101249.09;4439595;32;20454;-69
2022/03/24 01:24:14;;;;;;;44.13;19.08;;;;;;;2.23;52.32;101247.69;4439619;32;20436;-69
2022/03/24 01:26:42;;;;;;;45.55;18.55;;;;;;;2.07;53.00;101241.03;4439243;32;20162;-69
2022/03/24 01:29:11;;;;;;;42.40;18.62;;;;;;;1.92;53.93;101236.16;4439395;32;20390;-69
2022/03/24 01:31:42;;;;;;;52.97;18.30;;;;;;;1.80;54.50;101233.09;4439443;32;20163;-69
2022/03/24 01:34:09;;;;;;;33.78;18.12;;;;;;;1.73;54.38;101234.56;4439628;32;20069;-70
2022/03/24 01:36:37;;;;;;;42.30;18.48;;;;;;;1.65;55.49;101226.50;4439361;32;20105;-70
2022/03/24 01:39:07;;;;;;;42.42;17.62;;;;;;;1.61;54.97;101228.94;4439325;32;20124;-70
2022/03/24 01:41:35;;;;;;;39.05;17.17;;;;;;;1.55;55.99;101239.06;4438781;32;20101;-70
2022/03/24 01:44:02;;;;;;;34.50;16.12;;;;;;;1.50;54.71;101228.53;4439445;32;20103;-69
2022/03/24 01:46:29;;;;;;;46.80;18.77;;;;;;;1.53;55.12;101228.66;4439395;32;20104;-69
2022/03/24 01:48:57;;;;;;;45.28;17.25;;;;;;;1.46;55.86;101224.03;4439533;32;20776;-69
2022/03/24 01:51:24;;;;;;;42.65;17.85;;;;;;;1.50;56.00;101230.25;4439316;32;20097;-69
2022/03/24 01:53:53;;;;;;;34.55;15.48;;;;;;;1.47;55.69;101218.00;4439232;32;20081;-69
2022/03/24 01:56:20;;;;;;;36.38;16.45;;;;;;;1.44;55.79;101221.38;4439305;32;20216;-69
2022/03/24 01:58:50;;;;;;;37.70;16.73;;;;;;;1.47;55.39;101225.81;4439202;32;20506;-69
2022/03/24 02:01:34;;;;;;;37.15;17.08;;;;;;;1.49;54.52;101216.37;4439257;32;20152;-69
2022/03/24 02:04:04;;;;;;;44.53;16.15;;;;;;;1.45;55.31;101211.91;4439332;32;20156;-69
2022/03/24 02:06:32;;;;;;;31.45;14.27;;;;;;;1.37;54.92;101216.75;4439183;32;20437;-69
2022/03/24 02:09:02;;;;;;;29.12;14.60;;;;;;;1.32;56.27;101204.44;4439277;32;20171;-69
2022/03/24 02:11:30;;;;;;;31.25;13.38;;;;;;;1.33;55.23;101207.09;4439162;32;20164;-69
2022/03/24 02:13:58;;;;;;;39.15;13.82;;;;;;;1.34;54.69;101206.28;4439452;32;20097;-69
2022/03/24 02:16:30;;;;;;;30.55;14.87;;;;;;;1.35;54.89;101205.47;4439382;32;20093;-69
2022/03/24 02:18:59;;;;;;;32.75;14.50;;;;;;;1.42;54.07;101204.88;4439243;32;20155;-69
2022/03/24 02:21:26;;;;;;;43.78;13.30;;;;;;;1.45;55.32;101196.31;4439051;32;20123;-69
2022/03/24 02:23:55;;;;;;;27.85;13.43;;;;;;;1.38;54.48;101195.19;4439168;32;20393;-69
2022/03/24 02:26:22;;;;;;;35.30;13.25;;;;;;;1.37;55.23;101195.12;4438993;32;20384;-69
2022/03/24 02:28:50;;;;;;;34.60;15.05;;;;;;;1.34;54.86;101192.41;4439172;32;20502;-69
2022/03/24 02:31:18;;;;;;;30.62;15.00;;;;;;;1.37;54.54;101197.72;4439013;32;20512;-69
2022/03/24 02:33:45;;;;;;;37.42;15.27;;;;;;;1.44;55.52;101198.00;4439203;32;20110;-69
2022/03/24 02:36:13;;;;;;;44.22;17.27;;;;;;;1.49;54.96;101192.13;4439228;32;20507;-69
2022/03/24 02:38:40;;;;;;;38.90;16.37;;;;;;;1.46;59.22;101199.78;4439237;32;20508;-69
2022/03/24 02:41:07;;;;;;;33.58;15.95;;;;;;;1.39;61.81;101198.66;4439094;32;20550;-69
2022/03/24 02:43:34;;;;;;;37.85;15.30;;;;;;;1.28;61.86;101202.56;4439145;32;20093;-69
2022/03/24 02:46:02;;;;;;;37.17;15.50;;;;;;;1.26;61.20;101199.91;4439134;32;20141;-69
2022/03/24 02:48:29;;;;;;;39.20;14.80;;;;;;;1.30;60.38;101206.09;4439118;32;20127;-69
2022/03/24 02:50:58;;;;;;;32.53;13.32;;;;;;;1.40;60.68;101201.31;4438733;32;20123;-69
2022/03/24 02:53:26;;;;;;;28.73;13.20;;;;;;;1.37;59.02;101203.78;4438365;32;20156;-69
2022/03/24 02:55:53;;;;;;;26.33;11.30;;;;;;;1.31;59.64;101208.75;4438990;32;20093;-69
2022/03/24 02:58:20;;;;;;;28.75;11.30;;;;;;;1.30;58.78;101211.28;4439006;32;20143;-69
2022/03/24 03:00:47;;;;;;;21.85;11.38;;;;;;;1.11;58.50;101214.88;4438880;32;20093;-69
2022/03/24 03:03:14;;;;;;;24.75;11.52;;;;;;;1.05;59.29;101206.84;4438983;32;20076;-69
2022/03/24 03:05:42;;;;;;;24.58;11.12;;;;;;;1.07;59.87;101213.88;4439008;32;20163;-69
2022/03/24 03:08:09;;;;;;;25.08;11.02;;;;;;;1.16;59.57;101210.75;4438721;32;20124;-69
2022/03/24 03:10:38;;;;;;;27.77;11.45;;;;;;;1.29;57.89;101215.59;4438771;32;20105;-69
2022/03/24 03:13:05;;;;;;;27.37;11.48;;;;;;;1.40;58.58;101203.91;4438997;32;20562;-69
2022/03/24 03:15:35;;;;;;;31.73;12.20;;;;;;;1.54;56.95;101208.75;4439002;32;20149;-69
2022/03/24 03:18:02;;;;;;;26.90;12.25;;;;;;;1.60;56.53;101209.87;4438889;32;20591;-69
2022/03/24 03:20:29;;;;;;;26.83;11.43;;;;;;;1.49;57.11;101198.19;4438643;32;20499;-69
2022/03/24 03:22:57;;;;;;;25.77;11.57;;;;;;;1.27;57.81;101193.88;4438828;32;20503;-69
2022/03/24 03:25:24;;;;;;;27.87;12.88;;;;;;;1.13;58.04;101197.62;4438758;32;20396;-69
2022/03/24 03:27:51;;;;;;;25.77;12.70;;;;;;;1.23;57.29;101193.69;4438516;32;20544;-69
2022/03/24 03:30:19;;;;;;;25.20;12.18;;;;;;;1.15;57.99;101196.00;4424312;32;20104;-69
2022/03/24 03:32:46;;;;;;;29.37;12.23;;;;;;;1.20;56.98;101197.06;4438701;32;20081;-69
2022/03/24 03:35:13;;;;;;;25.80;13.05;;;;;;;1.20;57.30;101194.44;4438448;32;20093;-69
2022/03/24 03:37:40;;;;;;;27.30;13.00;;;;;;;1.29;56.52;101186.16;4438419;32;20161;-69
2022/03/24 03:40:08;;;;;;;31.62;13.48;;;;;;;1.18;58.07;101183.16;4438540;32;20147;-69
2022/03/24 03:42:35;;;;;;;29.00;14.13;;;;;;;1.00;59.87;101187.62;4438337;32;20131;-69
2022/03/24 03:45:03;;;;;;;31.80;12.15;;;;;;;0.75;60.66;101181.44;4438350;32;20173;-69
2022/03/24 03:47:30;;;;;;;24.92;11.80;;;;;;;0.82;59.00;101183.47;4438561;32;20539;-69
2022/03/24 03:49:57;;;;;;;34.45;12.25;;;;;;;0.93;59.11;101181.31;4438387;32;20153;-69
2022/03/24 03:52:30;;;;;;;22.52;10.35;;;;;;;0.95;59.28;101182.22;4438390;32;20164;-69
2022/03/24 03:54:57;;;;;;;23.35;10.63;;;;;;;1.05;58.75;101180.88;4438414;32;20112;-69
2022/03/24 03:57:24;;;;;;;25.70;9.98;;;;;;;1.01;58.50;101179.87;4438197;32;20131;-69
2022/03/24 03:59:52;;;;;;;25.25;9.80;;;;;;;1.04;57.61;101184.31;4438465;32;20132;-69
2022/03/24 04:02:19;;;;;;;20.95;9.45;;;;;;;1.11;57.52;101178.53;4438107;32;20468;-69
2022/03/24 04:04:47;;;;;;;19.67;9.85;;;;;;;1.16;56.96;101180.47;4437990;32;20120;-69
2022/03/24 04:07:14;;;;;;;21.65;9.30;;;;;;;0.97;58.13;101180.59;4438135;32;20544;-69
2022/03/24 04:09:41;;;;;;;24.05;9.20;;;;;;;0.96;57.84;101184.03;4438250;32;20436;-69
2022/03/24 04:12:09;;;;;;;30.15;9.55;;;;;;;0.91;58.61;101186.41;4438176;32;20106;-69
2022/03/24 04:14:36;;;;;;;25.55;9.60;;;;;;;0.96;57.90;101178.84;4438076;32;20097;-69
2022/03/24 04:17:03;;;;;;;27.95;9.60;;;;;;;0.94;58.57;101180.47;4438104;32;20093;-69
2022/03/24 04:19:32;;;;;;;30.80;11.27;;;;;;;0.93;58.36;101177.00;4438063;32;20465;-69
2022/03/24 04:22:01;;;;;;;19.23;9.18;;;;;;;1.03;58.85;101174.78;4437898;32;20150;-69
2022/03/24 04:24:28;;;;;;;19.98;8.60;;;;;;;1.08;59.37;101179.31;4437940;32;20123;-69
2022/03/24 04:26:56;;;;;;;24.23;8.90;;;;;;;1.18;58.60;101186.63;4437747;32;20156;-69
2022/03/24 04:29:23;;;;;;;24.85;8.98;;;;;;;1.25;56.93;101185.16;4437861;32;20104;-69
2022/03/24 04:31:51;;;;;;;24.80;8.77;;;;;;;1.22;57.47;101174.66;4437806;32;20428;-69
2022/03/24 04:34:19;;;;;;;27.62;8.85;;;;;;;1.31;57.16;101175.00;4437787;32;20185;-69
2022/03/24 04:36:47;;;;;;;28.48;9.13;;;;;;;1.40;56.62;101171.88;4437738;32;20101;-69
2022/03/24 04:39:15;;;;;;;27.25;8.25;;;;;;;1.46;57.05;101166.91;4437695;32;20127;-69
2022/03/24 04:41:42;;;;;;;27.52;9.63;;;;;;;1.47;56.48;101168.66;4437648;32;20092;-69
2022/03/24 04:44:10;;;;;;;29.33;12.25;;;;;;;1.43;57.55;101167.66;4437766;32;20089;-69
2022/03/24 04:46:37;;;;;;;28.00;11.55;;;;;;;1.51;56.69;101161.88;4437551;32;20097;-69
2022/03/24 04:49:05;;;;;;;29.77;11.65;;;;;;;1.67;55.55;101166.81;4437573;32;20172;-69
2022/03/24 04:51:32;;;;;;;27.90;11.20;;;;;;;1.74;54.98;101173.13;4436342;32;20089;-69
2022/03/24 04:53:59;;;;;;;29.55;11.60;;;;;;;1.79;55.60;101175.03;4438668;32;20150;-69
2022/03/24 04:56:27;;;;;;;38.78;11.30;;;;;;;1.74;56.22;101167.94;4433793;32;20455;-71
2022/03/24 04:58:54;;;;;;;28.85;12.32;;;;;;;1.73;56.28;101172.22;4437706;32;20092;-70
2022/03/24 05:01:21;;;;;;;40.65;12.15;;;;;;;1.78;55.90;101173.28;4437310;32;20154;-70
2022/03/24 05:03:49;;;;;;;29.33;12.18;;;;;;;1.74;55.84;101171.41;4437405;32;20107;-70
2022/03/24 05:06:16;;;;;;;25.30;11.95;;;;;;;1.81;54.71;101173.41;4437309;32;20139;-70
2022/03/24 05:08:43;;;;;;;30.88;12.85;;;;;;;1.80;56.22;101174.25;4435110;32;20113;-70
2022/03/24 05:11:11;;;;;;;34.97;13.40;;;;;;;1.89;56.11;101164.16;4436822;32;20115;-70
2022/03/24 05:13:38;;;;;;;29.20;12.10;;;;;;;1.90;56.17;101173.72;4437325;32;20097;-70
2022/03/24 05:16:05;;;;;;;33.70;12.48;;;;;;;2.07;54.54;101168.25;4438527;32;20124;-70
2022/03/24 05:18:33;;;;;;;36.10;12.82;;;;;;;2.05;55.89;101165.59;4425117;32;20157;-70
2022/03/24 05:21:00;;;;;;;34.83;12.27;;;;;;;2.20;55.49;101170.44;4439925;32;20100;-70
2022/03/24 05:23:27;;;;;;;47.38;13.85;;;;;;;2.41;54.58;101179.81;4440150;32;20123;-70
2022/03/24 05:25:55;;;;;;;30.60;12.88;;;;;;;2.54;54.16;101174.16;4440314;32;20090;-69
2022/03/24 05:28:22;;;;;;;46.28;14.48;;;;;;;2.56;55.85;101177.72;4439686;32;20157;-70
2022/03/24 05:30:50;;;;;;;38.42;13.45;;;;;;;2.55;55.90;101162.94;4439503;32;20093;-70
2022/03/24 05:33:17;;;;;;;48.78;14.95;;;;;;;2.53;57.62;101170.69;4440353;32;20089;-70
2022/03/24 05:35:45;;;;;;;35.20;13.77;;;;;;;2.57;60.09;101174.28;4440307;32;20104;-70
2022/03/24 05:38:13;;;;;;;35.20;14.23;;;;;;;2.60;59.89;101166.56;4439998;32;20140;-70
2022/03/24 05:40:41;;;;;;;33.70;14.50;;;;;;;2.72;58.12;101176.50;4440265;32;20602;-69
2022/03/24 05:43:08;;;;;;;43.95;13.70;;;;;;;2.84;57.67;101169.97;4440222;32;20097;-70
2022/03/24 05:45:35;;;;;;;33.75;13.98;;;;;;;2.94;57.36;101172.87;4439861;32;20109;-70
2022/03/24 05:48:03;;;;;;;34.53;13.82;;;;;;;3.16;57.23;101177.03;4440221;32;20204;-69
2022/03/24 05:50:31;;;;;;;34.92;13.75;;;;;;;3.46;54.38;101174.44;4439633;32;20114;-70
2022/03/24 05:53:02;;;;;;;28.75;13.35;;;;;;;3.80;51.42;101166.78;4439235;32;20077;-70
2022/03/24 05:55:30;;;;;;;38.38;13.93;;;;;;;4.11;50.42;101170.22;4439264;32;20120;-70
2022/03/24 05:57:57;;;;;;;42.33;14.07;;;;;;;4.42;48.44;101169.31;4439202;32;20102;-70
2022/03/24 06:00:24;;;;;;;32.75;12.32;;;;;;;4.70;47.11;101165.66;4439325;32;20085;-70
2022/03/24 06:02:53;;;;;;;35.75;12.40;;;;;;;5.30;44.50;101160.94;4438779;32;20826;-70
2022/03/24 06:05:22;;;;;;;32.17;11.88;;;;;;;5.67;43.07;101168.72;4438878;32;20163;-69
2022/03/24 06:07:49;;;;;;;33.58;11.25;;;;;;;6.08;41.50;101167.78;4433619;32;20177;-70
2022/03/24 06:10:18;;;;;;;31.70;11.63;;;;;;;6.45;40.14;101177.22;4435296;32;20112;-70
2022/03/24 06:12:47;;;;;;;37.65;11.38;;;;;;;6.88;38.84;101162.19;4435629;32;20161;-70
2022/03/24 06:15:14;;;;;;;27.10;11.12;;;;;;;7.33;38.18;101166.38;4440099;32;20101;-70
2022/03/24 06:17:42;;;;;;;28.27;10.75;;;;;;;7.70;36.57;101165.09;4440024;32;20184;-70
2022/03/24 06:20:10;;;;;;;26.08;10.27;;;;;;;7.97;36.40;101155.81;4439917;32;20081;-70
2022/03/24 06:22:43;;;;;;;21.55;9.25;;;;;;;8.38;35.05;101151.00;4439718;32;20140;-71
2022/03/24 06:25:10;;;;;;;37.33;10.88;;;;;;;8.72;34.46;101152.16;4440070;32;20155;-71
2022/03/24 06:27:37;;;;;;;36.22;11.55;;;;;;;8.95;33.92;101152.34;4439718;32;20131;-70
2022/03/24 06:30:05;;;;;;;30.48;9.77;;;;;;;9.37;32.98;101152.63;4439976;32;20097;-71
2022/03/24 06:32:33;;;;;;;32.42;11.50;;;;;;;9.72;32.35;101150.16;4440293;32;20089;-71
2022/03/24 06:35:03;;;;;;;26.58;11.15;;;;;;;10.00;31.74;101152.00;4439580;32;20159;-70
2022/03/24 06:37:39;;;;;;;27.95;10.73;;;;;;;10.24;31.22;101151.16;4440384;32;20787;-70
2022/03/24 06:40:09;;;;;;;27.87;9.35;;;;;;;10.41;31.19;101145.94;4439699;32;20072;-69
2022/03/24 06:42:37;;;;;;;24.98;9.80;;;;;;;10.56;30.84;101154.72;4439059;32;20101;-70
2022/03/24 06:45:06;;;;;;;39.55;11.60;;;;;;;10.65;30.58;101144.22;4439061;32;20438;-69
2022/03/24 06:47:34;;;;;;;31.02;10.02;;;;;;;10.68;30.81;101146.84;4439355;32;20097;-69
2022/03/24 06:50:01;;;;;;;31.08;10.10;;;;;;;10.78;30.89;101148.59;4439238;32;20230;-70
2022/03/24 06:52:28;;;;;;;27.77;10.00;;;;;;;10.77;31.09;101141.56;4438998;32;20157;-69
2022/03/24 06:54:56;;;;;;;34.13;10.35;;;;;;;10.88;31.24;101138.91;4438691;32;20081;-69
2022/03/24 06:57:23;;;;;;;43.63;10.63;;;;;;;10.97;31.27;101142.41;4439743;32;20624;-70
2022/03/24 06:59:50;;;;;;;30.95;10.57;;;;;;;11.15;31.05;101141.50;4439427;32;20084;-70
2022/03/24 07:02:17;;;;;;;26.35;10.60;;;;;;;11.19;31.00;101140.62;4438567;32;20144;-70
2022/03/24 07:04:49;;;;;;;33.10;10.75;;;;;;;11.36;30.74;101143.22;4438062;32;20397;-70
2022/03/24 07:07:17;;;;;;;25.77;10.55;;;;;;;11.57;30.53;101149.31;4438003;32;20127;-70
2022/03/24 07:09:44;;;;;;;32.72;10.82;;;;;;;11.71;30.05;101142.22;4438420;32;20116;-71
2022/03/24 07:12:11;;;;;;;38.10;11.30;;;;;;;11.92;29.37;101142.13;4438724;32;20127;-70
2022/03/24 07:14:39;;;;;;;20.17;8.98;;;;;;;12.13;29.51;101134.97;4438536;32;20431;-71
2022/03/24 07:17:06;;;;;;;25.90;8.90;;;;;;;12.38;28.87;101136.56;4438806;32;20097;-70
2022/03/24 07:19:33;;;;;;;28.73;9.52;;;;;;;12.53;29.15;101134.69;4439414;32;20081;-71
2022/03/24 07:22:00;;;;;;;32.83;10.05;;;;;;;12.74;28.39;101138.94;4439358;32;20132;-70
2022/03/24 07:24:28;;;;;;;20.12;8.50;;;;;;;12.96;28.13;101129.03;4438504;32;20475;-70
2022/03/24 07:26:55;;;;;;;27.90;9.25;;;;;;;13.18;27.85;101135.88;4438671;32;20544;-69
2022/03/24 07:29:22;;;;;;;22.80;8.98;;;;;;;13.39;26.82;101126.81;4438936;32;20152;-69
2022/03/24 07:31:50;;;;;;;19.95;7.93;;;;;;;13.54;27.03;101125.78;4439130;32;20110;-69
2022/03/24 07:34:17;;;;;;;22.10;8.15;;;;;;;13.69;27.25;101130.00;4438959;32;20090;-70
2022/03/24 07:36:45;;;;;;;18.00;7.80;;;;;;;13.77;26.37;101128.13;4426987;32;20599;-68
2022/03/24 07:39:12;;;;;;;17.48;8.40;;;;;;;13.85;25.61;101135.09;4422452;32;20085;-70
2022/03/24 07:41:39;;;;;;;32.72;8.35;;;;;;;14.01;25.74;101134.87;4423150;32;20094;-70
2022/03/24 07:44:07;;;;;;;23.55;7.62;;;;;;;14.07;26.10;101125.06;4422503;32;20211;-70
2022/03/24 07:46:37;;;;;;;24.02;8.10;;;;;;;14.14;25.27;101127.63;4422707;32;20491;-70
2022/03/24 07:49:05;;;;;;;16.98;7.68;;;;;;;14.27;24.73;101132.69;4422821;32;20412;-70
2022/03/24 07:51:34;;;;;;;28.27;7.70;;;;;;;14.40;24.47;101125.44;4422585;32;20575;-70
2022/03/24 07:54:04;;;;;;;22.25;7.60;;;;;;;14.49;24.67;101129.75;4422455;32;20456;-69
2022/03/24 07:56:34;;;;;;;15.05;7.65;;;;;;;14.58;24.53;101129.63;4422434;32;20160;-70
2022/03/24 07:59:02;;;;;;;14.98;7.28;;;;;;;14.72;23.50;101118.78;4422625;32;20390;-70
2022/03/24 08:01:31;;;;;;;15.80;6.70;;;;;;;14.76;23.66;101118.69;4422463;32;20483;-70
2022/03/24 08:04:01;;;;;;;13.70;7.07;;;;;;;14.86;23.85;101122.06;4422835;32;20129;-69
2022/03/24 08:06:30;;;;;;;13.13;7.45;;;;;;;15.02;23.56;101114.72;4423353;32;20216;-70
2022/03/24 08:08:58;;;;;;;18.75;8.52;;;;;;;15.18;23.66;101116.16;4431260;32;20119;-70
2022/03/24 08:11:26;;;;;;;15.27;8.38;;;;;;;15.25;23.73;101120.44;4437870;32;20504;-70
2022/03/24 08:13:55;;;;;;;18.30;8.23;;;;;;;15.34;23.44;101108.78;4437630;32;20162;-69
2022/03/24 08:16:24;;;;;;;15.48;8.23;;;;;;;15.51;23.55;101116.38;4437972;32;20097;-70
2022/03/24 08:18:53;;;;;;;18.20;9.05;;;;;;;15.77;23.37;101116.75;4433560;32;20816;-70
2022/03/24 08:21:21;;;;;;;17.62;9.00;;;;;;;15.84;22.81;101119.28;4427632;32;20097;-69
2022/03/24 08:23:48;;;;;;;16.27;8.48;;;;;;;16.05;21.36;101115.28;4423307;32;20136;-69
2022/03/24 08:26:16;;;;;;;12.70;6.30;;;;;;;16.13;21.86;101102.69;4423157;32;20170;-69
2022/03/24 08:28:43;;;;;;;17.37;7.28;;;;;;;16.50;20.13;101115.94;4422983;32;20085;-69
2022/03/24 08:31:10;;;;;;;43.55;20.33;;;;;;;16.76;19.42;101104.69;4422993;32;20106;-70
2022/03/24 08:33:37;;;;;;;30.85;9.95;;;;;;;16.95;19.55;101110.41;4423132;32;20165;-70
2022/03/24 08:36:05;;;;;;;44.67;17.10;;;;;;;17.14;18.53;101110.81;4422932;32;20089;-70
2022/03/24 08:38:32;;;;;;;22.33;8.45;;;;;;;17.16;19.05;101112.47;4422201;32;20147;-70
2022/03/24 08:40:59;;;;;;;18.75;7.35;;;;;;;17.30;18.62;101111.22;4426969;32;20132;-70
2022/03/24 08:43:26;;;;;;;15.60;7.43;;;;;;;17.37;18.70;101118.13;4425918;32;20090;-69
2022/03/24 08:45:53;;;;;;;19.08;8.70;;;;;;;17.58;19.39;101106.84;4422928;32;20102;-70
2022/03/24 08:48:21;;;;;;;24.25;8.43;;;;;;;17.75;18.73;101105.50;4422997;32;21011;-72
2022/03/24 08:50:48;;;;;;;12.23;7.47;;;;;;;17.68;18.90;101102.13;4423956;32;20124;-70
2022/03/24 08:53:16;;;;;;;12.18;6.93;;;;;;;17.71;18.97;101103.84;4424954;32;20102;-69
2022/03/24 08:55:43;;;;;;;13.88;7.45;;;;;;;17.80;18.93;101115.13;4424558;32;20150;-70
2022/03/24 08:58:10;;;;;;;18.25;7.70;;;;;;;17.67;18.96;101103.06;4423200;32;20411;-70
2022/03/24 09:00:37;;;;;;;19.30;7.93;;;;;;;17.68;18.79;101107.47;4424303;32;20085;-70
2022/03/24 09:03:05;;;;;;;23.85;6.97;;;;;;;17.75;18.50;101109.03;4424891;32;20101;-69
2022/03/24 09:05:34;;;;;;;23.65;7.30;;;;;;;17.87;18.24;101107.81;4424392;32;20184;-69
2022/03/24 09:08:01;;;;;;;13.18;7.28;;;;;;;18.01;18.63;101102.06;4424659;32;20445;-71
2022/03/24 09:10:28;;;;;;;16.27;7.10;;;;;;;18.16;18.17;101104.22;4424482;32;20112;-70
2022/03/24 09:12:55;;;;;;;14.05;7.43;;;;;;;18.30;18.22;101101.13;4423827;32;20090;-70
2022/03/24 09:15:23;;;;;;;12.68;6.97;;;;;;;18.39;17.61;101103.50;4423717;32;20106;-69
2022/03/24 09:17:50;;;;;;;22.90;8.05;;;;;;;18.27;17.79;101111.87;4435054;32;20229;-70
2022/03/24 09:20:19;;;;;;;16.95;7.93;;;;;;;18.27;17.94;101117.22;4431398;32;20128;-71
2022/03/24 09:22:48;;;;;;;14.57;7.47;;;;;;;18.33;18.46;101106.34;4416342;32;20108;-71
2022/03/24 09:25:18;;;;;;;16.73;8.32;;;;;;;18.47;17.94;101103.25;4432136;32;20143;-71
2022/03/24 09:27:46;;;;;;;13.25;6.25;;;;;;;18.61;17.19;101104.53;4430963;32;20110;-70
2022/03/24 09:30:18;;;;;;;12.02;5.78;;;;;;;18.76;16.66;101095.19;4430022;32;20114;-72
2022/03/24 09:32:47;;;;;;;16.08;6.95;;;;;;;19.01;16.62;101104.97;4424785;32;20145;-71
2022/03/24 09:35:15;;;;;;;13.40;6.30;;;;;;;19.20;16.88;101097.19;4424647;32;20128;-71
2022/03/24 09:37:43;;;;;;;15.23;6.53;;;;;;;19.37;16.61;101104.59;4424879;32;20085;-72
2022/03/24 09:40:11;;;;;;;9.80;6.18;;;;;;;19.44;16.39;101095.44;4427755;32;20987;-69
2022/03/24 09:42:39;;;;;;;11.05;6.78;;;;;;;19.43;15.83;101104.34;4437321;32;20124;-70
2022/03/24 09:45:09;;;;;;;13.40;7.05;;;;;;;19.61;16.48;101100.12;4435275;32;20140;-71
2022/03/24 09:47:37;;;;;;;9.93;6.72;;;;;;;19.76;15.93;101102.25;4427067;32;20089;-70
2022/03/24 09:50:05;;;;;;;16.35;7.07;;;;;;;19.65;16.09;101100.00;4434889;32;20090;-69
2022/03/24 09:52:33;;;;;;;17.62;6.87;;;;;;;19.47;16.14;101095.28;4440024;32;20105;-70
2022/03/24 09:55:00;;;;;;;13.25;7.50;;;;;;;19.50;16.60;101098.72;4440018;32;20772;-70
2022/03/24 09:57:27;;;;;;;14.90;7.10;;;;;;;19.48;16.24;101097.91;4439767;32;20436;-70
2022/03/24 09:59:55;;;;;;;15.50;7.95;;;;;;;19.48;16.58;101103.25;4438960;32;20085;-70
2022/03/24 10:02:23;;;;;;;11.40;7.40;;;;;;;19.65;16.57;101113.34;4438289;32;20539;-70
2022/03/24 10:05:00;;;;;;;15.43;8.90;;;;;;;19.70;16.64;101105.16;4438931;32;20089;-70
2022/03/24 10:07:30;;;;;;;12.43;7.75;;;;;;;19.80;17.03;101088.69;4427660;32;20147;-70
2022/03/24 10:09:58;;;;;;;16.52;8.68;;;;;;;19.80;17.01;101101.19;4423358;32;20106;-70
2022/03/24 10:12:36;;;;;;;18.92;8.60;;;;;;;19.91;17.04;101107.00;4434298;32;20573;-70
2022/03/24 10:15:12;;;;;;;20.67;8.75;;;;;;;19.99;16.73;101107.56;4426075;32;20446;-70
2022/03/24 10:17:48;;;;;;;13.70;8.05;;;;;;;20.08;17.08;101100.12;4423887;32;20085;-69
2022/03/24 10:20:16;;;;;;;11.45;7.37;;;;;;;20.11;16.71;101089.31;4423891;32;20487;-69
2022/03/24 10:22:55;;;;;;;18.50;8.88;;;;;;;20.25;16.76;101092.28;4424144;32;20090;-69
2022/03/24 10:25:39;;;;;;;13.77;7.97;;;;;;;20.33;16.65;101095.50;4424400;32;20742;-69
2022/03/24 10:28:11;;;;;;;10.63;7.70;;;;;;;20.46;16.56;101093.19;4424004;32;20086;-69
2022/03/24 10:31:03;;;;;;;15.38;7.90;;;;;;;20.72;16.42;101089.47;4424369;32;20739;-70
2022/03/24 10:33:47;;;;;;;10.60;7.20;;;;;;;20.89;15.86;101092.28;4424065;32;20097;-71
2022/03/24 10:36:18;;;;;;;12.55;7.15;;;;;;;20.98;15.48;101094.53;4423518;32;20725;-71
2022/03/24 10:38:48;;;;;;;10.35;7.30;;;;;;;20.79;15.55;101093.63;4424170;32;20093;-71
2022/03/24 10:41:27;;;;;;;13.98;7.57;;;;;;;20.76;15.49;101069.62;4424210;32;20188;-70
2022/03/24 10:43:57;;;;;;;22.67;7.50;;;;;;;20.71;16.04;101090.41;4428120;32;20085;-70
2022/03/24 10:46:28;;;;;;;17.23;8.32;;;;;;;21.08;15.74;101083.44;4439742;32;20127;-69
2022/03/24 10:48:56;;;;;;;12.27;6.95;;;;;;;21.10;15.65;101089.59;4432397;32;20085;-70
2022/03/24 10:51:25;;;;;;;12.37;8.40;;;;;;;21.10;15.59;101076.22;4425477;32;20097;-71
2022/03/24 10:54:15;;;;;;;10.57;7.55;;;;;;;21.37;15.12;101074.97;4430244;32;20177;-70
2022/03/24 10:57:02;;;;;;;15.15;8.00;;;;;;;21.42;15.35;101077.47;4420844;32;20449;-71
2022/03/24 10:59:37;;;;;;;18.45;8.27;;;;;;;21.77;15.24;101073.12;4424074;32;20073;-70
2022/03/24 11:02:05;;;;;;;23.70;8.15;;;;;;;21.87;15.00;101066.38;4424147;32;20107;-70
2022/03/24 11:04:33;;;;;;;11.80;8.48;;;;;;;22.07;15.00;101069.91;4423954;32;20145;-69
2022/03/24 11:07:00;;;;;;;12.45;8.05;;;;;;;22.66;14.56;101066.94;4424915;32;20096;-70
2022/03/24 11:09:30;;;;;;;13.20;8.27;;;;;;;23.27;14.16;101057.50;4439376;32;20077;-70
2022/03/24 11:12:26;;;;;;;17.70;7.87;;;;;;;24.19;13.66;101049.66;4438770;32;20219;-69
2022/03/24 11:14:59;;;;;;;13.65;7.10;;;;;;;24.63;13.17;101058.81;4439617;32;20085;-70
2022/03/24 11:17:30;;;;;;;10.55;7.00;;;;;;;25.05;12.67;101049.94;4439529;32;20184;-71
2022/03/24 11:20:06;;;;;;;10.05;6.43;;;;;;;25.52;12.19;101052.38;4439223;32;20085;-70
2022/03/24 11:22:39;;;;;;;8.93;6.12;;;;;;;25.96;11.47;101039.69;4439537;32;20142;-71